KSVN/SVN METAR and TAF weather

Enter ICAO airport designator
Station Type Date Time Source
KSVN METAR 2019/04/19 10:11 UTC NOAA

KSVN 191011Z AUTO 17011G19KT 10SM SCT012 BKN047 22/20 A2973 RMK AO2 SLP070 $


Station Type Date Time Source
KSVN Decoded METAR 2019/04/19 10:11 UTC NOAA

Hunter U. S. Army Airfield , GA, United States (KSVN) 32-01N 081-09W
Apr 19, 2019 - 06:11 AM EDT / 2019.04.19 1011 UTC
Wind: from the S (170 degrees) at 13 MPH (11 KT) gusting to 22 MPH (19 KT):0
Visibility: 10 mile(s):0
Sky conditions: mostly cloudy
Temperature: 71 F (22 C)
Dew Point: 68 F (20 C)
Relative Humidity: 88%
Pressure (altimeter): 29.73 in. Hg (1006 hPa)
ob: KSVN 191011Z AUTO 17011G19KT 10SM SCT012 BKN047 22/20 A2973 RMK AO2 SLP070
cycle: 10

Station Type Date Time Source
KSVN TAF 2019/04/19 09:03 UTC NOAA

TAF
AMD KSVN 190900Z 1909/2010 17012KT 9999 FEW010 SCT110 WS020/17045KT 550104 QNH2969INS
BECMG 1913/1914 19020G35KT 4800 SHRA BKN020 550104 QNH2960INS
TEMPO 1914/2002 VRB30G45KT 3200 +TSRAGR BKN010CB
BECMG 2001/2002 23012G25KT 9999 NSW SCT020 520109 QNH2960INS TX27/1918Z TN11/2004Z

Example: see airport list